createdAt,value
2019-05-03T00:02:36.000Z,10.43
2019-05-03T00:05:09.286Z,9.77
2019-05-03T00:07:38.712Z,11.60
2019-05-03T00:10:08.549Z,10.50
2019-05-03T00:12:37.978Z,10.83
2019-05-03T00:15:18.763Z,12.77
2019-05-03T00:17:48.390Z,11.73
2019-05-03T00:20:17.790Z,12.40
2019-05-03T00:22:47.300Z,12.47
2019-05-03T00:25:16.698Z,11.97
2019-05-03T00:27:46.125Z,10.30
2019-05-03T00:30:15.692Z,11.63
2019-05-03T00:32:45.115Z,12.67
2019-05-03T00:35:31.948Z,11.13
2019-05-03T00:38:03.005Z,10.93
2019-05-03T00:40:32.501Z,11.63
2019-05-03T00:43:02.436Z,12.33
2019-05-03T00:45:31.864Z,16.07
2019-05-03T00:48:01.936Z,13.37
2019-05-03T00:50:32.112Z,12.60
2019-05-03T00:53:02.370Z,14.33
2019-05-03T00:55:32.758Z,14.80
2019-05-03T00:58:02.609Z,14.20
2019-05-03T01:00:32.529Z,14.10
2019-05-03T01:03:02.259Z,15.97
2019-05-03T01:05:33.103Z,17.40
2019-05-03T01:08:02.867Z,14.37
2019-05-03T01:10:33.110Z,17.07
2019-05-03T01:13:02.717Z,14.73
2019-05-03T01:15:39.593Z,15.17
2019-05-03T01:18:12.328Z,16.17
2019-05-03T01:20:42.654Z,15.70
2019-05-03T01:23:12.471Z,16.80
2019-05-03T01:25:42.928Z,16.60
2019-05-03T01:28:12.597Z,19.30
2019-05-03T01:30:42.505Z,18.47
2019-05-03T01:33:12.240Z,19.30
2019-05-03T01:35:42.781Z,19.53
2019-05-03T01:38:12.248Z,20.77
2019-05-03T01:40:41.987Z,18.63
2019-05-03T01:43:11.786Z,19.87
2019-05-03T01:45:42.498Z,20.33
2019-05-03T01:48:16.671Z,19.03
2019-05-03T01:50:47.729Z,19.80
2019-05-03T01:53:24.596Z,18.23
2019-05-03T01:55:54.010Z,16.97
2019-05-03T01:58:24.186Z,19.70
2019-05-03T02:01:02.811Z,17.90
2019-05-03T02:03:34.065Z,16.50
2019-05-03T02:06:03.743Z,17.27
2019-05-03T02:08:33.158Z,17.70
2019-05-03T02:11:02.584Z,14.40
2019-05-03T02:13:32.207Z,16.87
2019-05-03T02:16:02.311Z,18.03
2019-05-03T02:18:31.952Z,16.83
2019-05-03T02:21:01.774Z,15.23
2019-05-03T02:23:31.990Z,15.73
2019-05-03T02:26:03.029Z,16.13
2019-05-03T02:28:32.819Z,14.83
2019-05-03T02:31:03.603Z,14.97
2019-05-03T02:33:33.321Z,15.47
2019-05-03T02:36:03.585Z,15.73
2019-05-03T02:38:34.001Z,16.63
2019-05-03T02:41:03.875Z,14.17
2019-05-03T02:43:36.364Z,14.87
2019-05-03T02:46:25.367Z,15.20
2019-05-03T02:49:02.415Z,14.43
2019-05-03T02:51:31.871Z,15.13
2019-05-03T02:54:01.291Z,13.97
2019-05-03T02:56:30.706Z,15.97
2019-05-03T02:59:00.150Z,13.47
2019-05-03T03:01:30.019Z,16.40
2019-05-03T03:03:59.804Z,15.70
2019-05-03T03:06:31.377Z,16.67
2019-05-03T03:09:00.850Z,14.07
2019-05-03T03:11:35.418Z,15.83
2019-05-03T03:14:05.819Z,15.50
2019-05-03T03:16:36.393Z,14.37
2019-05-03T03:19:06.851Z,15.20
2019-05-03T03:21:40.863Z,14.30
2019-05-03T03:24:16.912Z,16.70
2019-05-03T03:26:47.755Z,14.33
2019-05-03T03:29:18.737Z,15.40
2019-05-03T03:31:51.214Z,15.93
2019-05-03T03:34:28.015Z,18.90
2019-05-03T03:37:03.799Z,15.68
2019-05-03T03:39:27.884Z,18.67
2019-05-03T03:41:58.546Z,15.23
2019-05-03T03:44:28.263Z,19.10
2019-05-03T03:47:00.077Z,15.90
2019-05-03T03:49:31.933Z,15.67
2019-05-03T03:52:06.169Z,17.27
2019-05-03T03:54:36.409Z,16.00
2019-05-03T03:57:08.170Z,17.37
2019-05-03T03:59:37.171Z,15.67
2019-05-03T04:02:06.718Z,17.17
2019-05-03T04:04:36.378Z,18.27
2019-05-03T04:07:06.983Z,15.47
2019-05-03T04:09:36.909Z,17.20
2019-05-03T04:12:06.762Z,17.67
2019-05-03T04:14:56.267Z,16.67
2019-05-03T04:17:27.716Z,16.93
2019-05-03T04:19:59.110Z,16.30
2019-05-03T04:22:28.641Z,16.60
2019-05-03T04:24:58.089Z,15.60
2019-05-03T04:27:27.994Z,17.20
2019-05-03T04:29:57.543Z,18.47
2019-05-03T04:32:28.941Z,16.23
2019-05-03T04:34:58.043Z,16.03
2019-05-03T04:37:27.478Z,17.00
2019-05-03T04:39:56.884Z,17.90
2019-05-03T04:42:26.381Z,16.77
2019-05-03T04:44:56.505Z,17.67
2019-05-03T04:47:26.719Z,17.27
2019-05-03T04:49:56.304Z,16.47
2019-05-03T04:52:26.182Z,16.33
2019-05-03T04:54:59.859Z,17.03
2019-05-03T04:57:39.847Z,17.67
2019-05-03T05:00:00.354Z,18.20
2019-05-03T05:02:31.335Z,16.97
2019-05-03T05:05:00.752Z,18.53
2019-05-03T05:07:30.155Z,17.50
2019-05-03T05:09:59.588Z,16.10
2019-05-03T05:12:29.006Z,20.67
2019-05-03T05:14:58.436Z,17.90
2019-05-03T05:17:35.683Z,17.30
2019-05-03T05:20:14.629Z,18.40
2019-05-03T05:22:45.410Z,18.67
2019-05-03T05:25:16.770Z,18.60
2019-05-03T05:28:04.771Z,20.27
2019-05-03T05:30:35.305Z,16.80
2019-05-03T05:33:06.484Z,17.10
2019-05-03T05:35:35.901Z,15.43
2019-05-03T05:38:05.338Z,21.17
2019-05-03T05:40:35.030Z,15.07
2019-05-03T05:43:05.106Z,16.50
2019-05-03T05:45:34.961Z,17.43
2019-05-03T05:48:06.044Z,17.00
2019-05-03T05:50:37.108Z,16.80
2019-05-03T05:53:06.537Z,17.93
2019-05-03T05:55:54.972Z,15.20
2019-05-03T05:58:28.894Z,17.37
2019-05-03T06:00:59.949Z,18.57
2019-05-03T06:03:29.371Z,20.47
2019-05-03T06:06:00.436Z,16.13
2019-05-03T06:08:44.684Z,16.30
2019-05-03T06:11:15.938Z,18.23
2019-05-03T06:13:46.977Z,17.43
2019-05-03T06:16:34.881Z,18.33
2019-05-03T06:19:15.324Z,14.47
2019-05-03T06:21:55.690Z,15.27
2019-05-03T06:24:29.641Z,15.20
2019-05-03T06:27:15.213Z,15.20
2019-05-03T06:29:45.681Z,13.87
2019-05-03T06:32:25.388Z,15.57
2019-05-03T06:34:54.950Z,17.77
2019-05-03T06:37:31.938Z,14.83
2019-05-03T06:40:01.368Z,14.27
2019-05-03T06:42:30.764Z,12.50
2019-05-03T06:45:08.247Z,14.87
2019-05-03T06:47:31.304Z,12.57
2019-05-03T06:50:00.820Z,15.43
2019-05-03T06:52:30.244Z,14.20
2019-05-03T06:55:00.309Z,13.03
2019-05-03T06:57:30.837Z,14.50
2019-05-03T07:00:17.315Z,12.43
2019-05-03T07:02:48.352Z,12.87
2019-05-03T07:05:28.457Z,12.40
2019-05-03T07:07:59.496Z,12.20
2019-05-03T07:10:35.121Z,10.70
2019-05-03T07:13:08.602Z,12.67
2019-05-03T07:15:36.497Z,11.20
2019-05-03T07:18:05.987Z,12.80
2019-05-03T07:20:44.616Z,14.63
2019-05-03T07:23:15.626Z,13.50
2019-05-03T07:25:45.147Z,12.73
2019-05-03T07:28:15.137Z,12.97
2019-05-03T07:30:45.405Z,13.23
2019-05-03T07:33:32.065Z,11.60
2019-05-03T07:36:01.536Z,13.00
2019-05-03T07:38:30.951Z,14.03
2019-05-03T07:41:00.383Z,11.43
2019-05-03T07:43:29.792Z,12.37
2019-05-03T07:45:59.206Z,14.03
2019-05-03T07:48:28.637Z,11.43
2019-05-03T07:50:58.055Z,12.03
2019-05-03T07:53:27.467Z,12.43
2019-05-03T07:56:05.198Z,11.57
2019-05-03T07:58:39.783Z,12.90
2019-05-03T08:01:10.925Z,16.97
2019-05-03T08:03:40.343Z,12.10
2019-05-03T08:06:09.786Z,13.10
2019-05-03T08:08:39.184Z,14.30
2019-05-03T08:11:08.603Z,10.63
2019-05-03T08:13:38.011Z,10.77
2019-05-03T08:16:07.442Z,10.93
2019-05-03T08:18:36.853Z,10.73
2019-05-03T08:21:06.375Z,9.43
2019-05-03T08:23:35.782Z,9.30
2019-05-03T08:26:05.944Z,10.43
2019-05-03T08:28:35.551Z,10.50
2019-05-03T08:31:09.846Z,9.67
2019-05-03T08:33:40.895Z,9.67
2019-05-03T08:36:10.376Z,9.47
2019-05-03T08:38:39.774Z,8.17
2019-05-03T08:41:10.834Z,8.37
2019-05-03T08:43:40.264Z,7.80
2019-05-03T08:46:09.676Z,7.13
2019-05-03T08:48:39.169Z,9.43
2019-05-03T08:51:08.594Z,9.97
2019-05-03T08:53:37.991Z,8.10
2019-05-03T08:56:07.386Z,9.50
2019-05-03T08:58:36.898Z,6.10
2019-05-03T09:01:06.730Z,7.70
2019-05-03T09:03:38.314Z,7.70
2019-05-03T09:06:07.345Z,6.53
2019-05-03T09:08:36.781Z,6.90
2019-05-03T09:11:10.924Z,5.73
2019-05-03T09:13:57.190Z,4.27
2019-05-03T09:16:26.603Z,8.60
2019-05-03T09:18:56.061Z,4.83
2019-05-03T09:21:25.695Z,5.70
2019-05-03T09:23:55.526Z,7.53
2019-05-03T09:26:29.111Z,6.10
2019-05-03T09:28:56.271Z,7.13
2019-05-03T09:31:25.657Z,5.50
2019-05-03T09:33:55.175Z,5.80
2019-05-03T09:36:25.274Z,5.73
2019-05-03T09:38:55.159Z,5.03
2019-05-03T09:41:25.652Z,6.03
2019-05-03T09:43:55.591Z,3.83
2019-05-03T09:46:26.394Z,5.17
2019-05-03T09:49:03.329Z,3.00
2019-05-03T09:51:27.265Z,4.20
2019-05-03T09:54:01.228Z,4.40
2019-05-03T09:56:55.869Z,3.52
2019-05-03T09:59:19.248Z,4.40
2019-05-03T10:01:48.659Z,4.85
2019-05-03T10:04:18.221Z,4.87
2019-05-03T10:06:47.650Z,4.12
2019-05-03T10:09:17.127Z,4.03
2019-05-03T10:11:46.625Z,4.40
2019-05-03T10:14:16.115Z,6.53
2019-05-03T10:16:47.158Z,4.70
2019-05-03T10:19:16.578Z,5.42
2019-05-03T10:21:47.848Z,5.12
2019-05-03T10:24:17.299Z,5.15
2019-05-03T10:26:46.686Z,4.87
2019-05-03T10:29:16.104Z,5.73
2019-05-03T10:31:59.117Z,4.83
2019-05-03T10:34:28.529Z,4.27
2019-05-03T10:36:57.928Z,3.57
2019-05-03T10:39:27.369Z,4.25
2019-05-03T10:41:56.754Z,3.85
2019-05-03T10:44:26.172Z,4.42
2019-05-03T10:46:56.002Z,4.55
2019-05-03T10:49:25.591Z,3.98
2019-05-03T10:51:56.629Z,3.80
2019-05-03T10:57:10.966Z,3.50
2019-05-03T10:59:40.418Z,4.67
2019-05-03T11:02:11.459Z,4.12
2019-05-03T11:04:43.537Z,3.50
2019-05-03T11:07:11.962Z,4.17
2019-05-03T11:09:49.571Z,4.17
2019-05-03T11:12:14.672Z,6.03
2019-05-03T11:14:45.386Z,4.87
2019-05-03T11:17:15.014Z,4.97
2019-05-03T11:19:45.395Z,4.40
2019-05-03T11:22:14.996Z,6.37
2019-05-03T11:24:45.384Z,5.20
2019-05-03T11:27:19.771Z,6.50
2019-05-03T11:29:49.188Z,6.50
2019-05-03T11:32:22.934Z,5.87
2019-05-03T11:35:11.564Z,5.67
2019-05-03T11:37:41.872Z,4.87
2019-05-03T11:40:11.453Z,4.70
2019-05-03T11:42:40.924Z,5.60
2019-05-03T11:45:11.381Z,4.73
2019-05-03T11:47:40.784Z,5.60
2019-05-03T11:50:10.622Z,4.73
2019-05-03T11:52:40.005Z,5.23
2019-05-03T11:55:11.648Z,4.87
2019-05-03T11:57:40.509Z,5.03
2019-05-03T12:00:12.409Z,4.97
2019-05-03T12:02:45.248Z,4.40
2019-05-03T12:05:19.452Z,5.33
2019-05-03T12:07:48.869Z,6.03
2019-05-03T12:10:32.192Z,5.23
2019-05-03T12:12:57.406Z,8.60
2019-05-03T12:15:26.829Z,7.30
2019-05-03T12:17:59.239Z,6.50
2019-05-03T12:20:30.666Z,6.73
2019-05-03T12:23:00.691Z,5.70
2019-05-03T12:25:31.254Z,5.33
2019-05-03T12:28:01.031Z,6.10
2019-05-03T12:30:30.449Z,4.93
2019-05-03T12:32:59.863Z,6.40
2019-05-03T12:35:29.270Z,6.43
2019-05-03T12:37:58.675Z,4.00
2019-05-03T12:40:28.103Z,4.03
2019-05-03T12:42:57.504Z,6.07
2019-05-03T12:45:26.942Z,4.93
2019-05-03T12:47:56.337Z,4.90
2019-05-03T12:50:25.768Z,4.33
2019-05-03T12:52:55.597Z,4.87
2019-05-03T12:55:25.200Z,4.07
2019-05-03T12:57:55.563Z,5.60
2019-05-03T13:00:29.726Z,4.60
2019-05-03T13:03:00.771Z,6.00
2019-05-03T13:05:30.751Z,6.40
2019-05-03T13:08:23.128Z,6.43
2019-05-03T13:10:52.719Z,5.77
2019-05-03T13:13:22.120Z,6.10
2019-05-03T13:15:51.538Z,6.30
2019-05-03T13:18:20.937Z,6.70
2019-05-03T13:20:50.366Z,4.90
2019-05-03T13:23:19.762Z,4.37
2019-05-03T13:25:49.185Z,4.47
2019-05-03T13:28:18.579Z,3.70
2019-05-03T13:30:48.070Z,5.97
2019-05-03T13:33:17.461Z,4.67
2019-05-03T13:35:46.874Z,4.23
2019-05-03T13:38:16.292Z,3.67
2019-05-03T13:40:46.270Z,5.00
2019-05-03T13:43:15.674Z,4.80
2019-05-03T13:45:45.210Z,3.33
2019-05-03T13:48:16.833Z,3.53
2019-05-03T13:50:45.851Z,5.10
2019-05-03T13:53:16.127Z,5.20
2019-05-03T13:55:45.688Z,4.10
2019-05-03T13:58:15.087Z,3.83
2019-05-03T14:00:45.359Z,5.97
2019-05-03T14:03:15.381Z,4.23
2019-05-03T14:05:44.941Z,5.17
2019-05-03T14:08:15.673Z,3.43
2019-05-03T14:10:45.737Z,3.13
2019-05-03T14:13:15.205Z,4.20
2019-05-03T14:15:45.319Z,3.97
2019-05-03T14:18:15.356Z,4.10
2019-05-03T14:20:46.433Z,3.97
2019-05-03T14:23:15.866Z,6.83
2019-05-03T14:25:45.272Z,3.57
2019-05-03T14:28:14.723Z,4.30
2019-05-03T14:30:45.531Z,3.03
2019-05-03T14:33:14.936Z,3.97
2019-05-03T14:35:45.605Z,3.93
2019-05-03T14:38:15.259Z,3.90
2019-05-03T14:40:44.964Z,4.10
2019-05-03T14:43:15.822Z,2.37
2019-05-03T14:45:45.223Z,3.47
2019-05-03T14:48:15.241Z,3.07
2019-05-03T14:50:45.568Z,3.83
2019-05-03T14:53:15.107Z,4.37
2019-05-03T14:55:46.139Z,2.63
2019-05-03T14:58:35.359Z,2.60
2019-05-03T15:01:09.179Z,3.20
2019-05-03T15:03:38.651Z,3.27
2019-05-03T15:06:08.042Z,3.53
2019-05-03T15:08:37.466Z,4.10
2019-05-03T15:11:06.877Z,3.50
2019-05-03T15:13:36.284Z,3.97
2019-05-03T15:16:05.701Z,3.90
2019-05-03T15:18:35.118Z,3.73
2019-05-03T15:21:05.502Z,3.93
2019-05-03T15:23:35.076Z,3.40
2019-05-03T15:26:05.133Z,5.37
2019-05-03T15:28:35.595Z,4.53
2019-05-03T15:31:05.403Z,4.10
2019-05-03T15:33:35.378Z,4.00
2019-05-03T15:36:05.282Z,4.23
2019-05-03T15:38:34.832Z,4.17
2019-05-03T15:41:05.406Z,3.77
2019-05-03T15:43:45.509Z,5.37
2019-05-03T15:46:19.445Z,4.53
2019-05-03T15:48:50.510Z,4.67
2019-05-03T15:51:19.909Z,4.70
2019-05-03T15:53:49.329Z,4.80
2019-05-03T15:56:20.038Z,6.27
2019-05-03T15:58:49.476Z,7.63
2019-05-03T16:01:18.897Z,5.27
2019-05-03T16:03:48.316Z,6.03
2019-05-03T16:06:17.714Z,5.23
2019-05-03T16:08:47.195Z,6.07
2019-05-03T16:11:17.260Z,4.10
2019-05-03T16:13:46.716Z,5.57
2019-05-03T16:16:16.124Z,5.40
2019-05-03T16:18:45.579Z,4.43
2019-05-03T16:21:14.996Z,4.77
2019-05-03T16:23:46.389Z,5.20
2019-05-03T16:26:15.561Z,4.90
2019-05-03T16:28:46.656Z,4.97
2019-05-03T16:31:17.756Z,5.27
2019-05-03T16:33:47.176Z,5.33
2019-05-03T16:36:16.578Z,4.33
2019-05-03T16:38:45.994Z,5.60
2019-05-03T16:41:17.667Z,5.67
2019-05-03T16:43:46.510Z,3.67
2019-05-03T16:46:15.963Z,3.80
2019-05-03T16:48:45.389Z,6.17
2019-05-03T16:51:17.172Z,6.60
2019-05-03T16:53:46.060Z,5.03
2019-05-03T16:56:17.151Z,3.57
2019-05-03T16:58:46.752Z,3.27
2019-05-03T17:01:18.177Z,4.10
2019-05-03T17:03:48.916Z,5.90
2019-05-03T17:06:26.585Z,6.13
2019-05-03T17:09:00.471Z,4.43
2019-05-03T17:11:29.951Z,6.50
2019-05-03T17:13:59.368Z,4.10
2019-05-03T17:16:28.764Z,3.60
2019-05-03T17:18:58.178Z,4.03
2019-05-03T17:21:27.725Z,4.73
2019-05-03T17:23:57.130Z,5.67
2019-05-03T17:26:26.530Z,6.10
2019-05-03T17:28:55.954Z,6.10
2019-05-03T17:31:25.346Z,4.90
2019-05-03T17:33:56.781Z,5.30
2019-05-03T17:36:25.900Z,4.67
2019-05-03T17:38:56.956Z,3.70
2019-05-03T17:41:34.754Z,4.77
2019-05-03T17:44:05.922Z,3.87
2019-05-03T17:46:35.375Z,3.50
2019-05-03T17:49:05.245Z,6.83
2019-05-03T17:51:42.603Z,5.43
2019-05-03T17:54:16.520Z,4.87
2019-05-03T17:57:04.473Z,5.53
2019-05-03T17:59:38.266Z,4.53
2019-05-03T18:02:25.275Z,5.67
2019-05-03T18:05:12.261Z,5.40
2019-05-03T18:07:45.255Z,6.23
2019-05-03T18:10:15.176Z,5.60
2019-05-03T18:12:45.363Z,6.83
2019-05-03T18:15:15.055Z,6.47
2019-05-03T18:17:44.529Z,7.90
2019-05-03T18:20:15.064Z,6.47
2019-05-03T18:22:44.527Z,6.40
2019-05-03T18:25:15.535Z,6.83
2019-05-03T18:27:44.935Z,5.00
2019-05-03T18:30:14.783Z,6.43
2019-05-03T18:32:45.238Z,7.27
2019-05-03T18:35:15.314Z,6.07
2019-05-03T18:37:46.431Z,8.13
2019-05-03T18:40:15.843Z,8.90
2019-05-03T18:43:04.494Z,11.17
2019-05-03T18:45:35.753Z,13.00
2019-05-03T18:48:05.166Z,9.23
2019-05-03T18:50:35.084Z,8.73
2019-05-03T18:53:04.831Z,8.60
2019-05-03T18:55:34.469Z,9.30
2019-05-03T18:58:04.382Z,10.80
2019-05-03T19:00:35.111Z,9.13
2019-05-03T19:03:04.983Z,9.47
2019-05-03T19:05:36.040Z,7.50
2019-05-03T19:08:19.033Z,6.27
2019-05-03T19:11:06.074Z,8.87
2019-05-03T19:13:37.112Z,8.03
2019-05-03T19:16:08.165Z,7.40
2019-05-03T19:18:39.280Z,7.53
2019-05-03T19:21:08.718Z,5.37
2019-05-03T19:23:38.136Z,6.60
2019-05-03T19:26:07.610Z,6.80
2019-05-03T19:28:37.162Z,7.33
2019-05-03T19:31:06.802Z,7.73
2019-05-03T19:33:37.292Z,7.07
2019-05-03T19:36:06.834Z,5.70
2019-05-03T19:38:36.352Z,6.20
2019-05-03T19:41:05.826Z,9.57
2019-05-03T19:43:35.514Z,6.70
2019-05-03T19:46:07.378Z,6.60
2019-05-03T19:48:36.362Z,6.43
2019-05-03T19:51:05.934Z,7.23
2019-05-03T19:53:39.689Z,6.93
2019-05-03T19:56:11.287Z,6.70
2019-05-03T19:58:40.697Z,8.67
2019-05-03T20:01:26.566Z,6.33
2019-05-03T20:03:57.620Z,4.97
2019-05-03T20:06:45.216Z,6.90
2019-05-03T20:09:25.462Z,8.87
2019-05-03T20:11:55.290Z,9.80
2019-05-03T20:14:25.716Z,8.63
2019-05-03T20:16:55.295Z,10.30
2019-05-03T20:19:25.664Z,9.83
2019-05-03T20:21:56.686Z,7.50
2019-05-03T20:24:26.209Z,7.13
2019-05-03T20:26:55.603Z,8.03
2019-05-03T20:29:25.190Z,7.37
2019-05-03T20:31:55.215Z,9.03
2019-05-03T20:34:25.031Z,6.17
2019-05-03T20:36:54.878Z,6.57
2019-05-03T20:39:25.456Z,7.30
2019-05-03T20:41:55.243Z,7.03
2019-05-03T20:44:26.418Z,6.70
2019-05-03T20:46:57.476Z,10.97
2019-05-03T20:49:26.890Z,9.03
2019-05-03T20:51:56.300Z,10.37
2019-05-03T20:54:25.737Z,8.60
2019-05-03T20:56:55.164Z,9.27
2019-05-03T20:59:25.286Z,9.83
2019-05-03T21:01:54.754Z,7.40
2019-05-03T21:04:24.681Z,7.40
2019-05-03T21:06:55.224Z,8.73
2019-05-03T21:09:24.697Z,7.80
2019-05-03T21:11:55.183Z,8.57
2019-05-03T21:14:24.709Z,8.27
2019-05-03T21:17:04.630Z,7.03
2019-05-03T21:19:38.168Z,7.23
2019-05-03T21:22:09.213Z,7.63
2019-05-03T21:24:43.082Z,7.57
2019-05-03T21:27:12.488Z,7.63
2019-05-03T21:30:01.032Z,9.60
2019-05-03T21:32:30.448Z,7.27
2019-05-03T21:34:59.963Z,7.83
2019-05-03T21:37:29.380Z,8.70
2019-05-03T21:39:58.804Z,11.60
2019-05-03T21:42:28.212Z,11.27
2019-05-03T21:44:57.635Z,12.60
2019-05-03T21:47:28.676Z,10.37
2019-05-03T21:49:59.864Z,7.70
2019-05-03T21:52:29.272Z,8.80
2019-05-03T21:54:58.668Z,10.07
2019-05-03T21:57:28.178Z,7.30
2019-05-03T21:59:57.658Z,8.23
2019-05-03T22:02:27.071Z,7.33
2019-05-03T22:04:56.476Z,8.87
2019-05-03T22:07:26.844Z,7.30
2019-05-03T22:09:56.256Z,8.40
2019-05-03T22:12:25.678Z,8.40
2019-05-03T22:14:56.719Z,6.23
2019-05-03T22:17:44.741Z,6.83
2019-05-03T22:20:24.809Z,8.67
2019-05-03T22:22:55.876Z,9.37
2019-05-03T22:25:26.905Z,8.20
2019-05-03T22:27:56.355Z,8.73
2019-05-03T22:30:26.828Z,9.20
2019-05-03T22:32:56.415Z,7.63
2019-05-03T22:35:25.811Z,5.97
2019-05-03T22:37:55.223Z,7.13
2019-05-03T22:40:25.159Z,8.10
2019-05-03T22:42:54.636Z,9.27
2019-05-03T22:45:24.061Z,7.63
2019-05-03T22:47:54.975Z,7.80
2019-05-03T22:50:25.476Z,9.07
2019-05-03T22:52:55.142Z,9.20
2019-05-03T22:55:24.783Z,7.83
2019-05-03T22:57:54.649Z,8.37
2019-05-03T23:00:25.189Z,10.10
2019-05-03T23:02:54.905Z,7.17
2019-05-03T23:05:24.307Z,9.87
2019-05-03T23:07:55.241Z,10.60
2019-05-03T23:10:25.690Z,9.43
2019-05-03T23:12:55.247Z,9.03
2019-05-03T23:15:24.673Z,8.83
2019-05-03T23:17:54.533Z,10.47
2019-05-03T23:20:42.170Z,9.50
2019-05-03T23:23:14.463Z,9.93
2019-05-03T23:25:44.901Z,9.57
2019-05-03T23:28:14.564Z,7.83
2019-05-03T23:30:43.959Z,8.53
2019-05-03T23:33:14.531Z,10.47
2019-05-03T23:35:44.497Z,9.57
2019-05-03T23:38:15.149Z,9.33
2019-05-03T23:40:44.785Z,9.90
2019-05-03T23:43:14.492Z,11.00
2019-05-03T23:45:45.284Z,7.93
2019-05-03T23:48:14.986Z,10.63
2019-05-03T23:50:44.621Z,10.60
2019-05-03T23:53:15.382Z,10.27
2019-05-03T23:55:46.566Z,9.23
2019-05-03T23:58:15.979Z,7.97
